Time;durP1;ratioP1;P1;durP2;ratioP2;P2;SDS_P1;SDS_P2;PMS_P1;PMS_P2;Temp;Humidity;BMP_temperature;BMP_pressure;BME280_temperature;BME280_humidity;BME280_pressure;Samples;Min_cycle;Max_cycle;Signal;HPM_P1;HPM_P2
2022/02/05 00:02:16;;;;;;;5.17;4.55;;;;;;;7.91;56.35;101739.43;1684495;83;21093;-71
2022/02/05 00:04:41;;;;;;;8.93;4.45;;;;;;;7.90;56.36;101737.68;1646262;85;21127;-71
2022/02/05 00:07:09;;;;;;;5.80;4.70;;;;;;;7.89;56.36;101740.69;1693244;84;21061;-71
2022/02/05 00:14:52;;;;;;;5.60;4.90;;;;;;;7.92;56.19;101745.91;1764550;80;21034;-72
2022/02/05 00:41:29;;;;;;;6.17;5.05;;;;;;;7.92;56.18;101712.22;1758512;80;21007;-72
2022/02/05 00:44:02;;;;;;;6.83;5.72;;;;;;;7.90;56.21;101712.64;1756158;80;20986;-72
2022/02/05 00:46:33;;;;;;;6.50;5.03;;;;;;;7.91;56.28;101716.95;1756810;80;21053;-71
2022/02/05 00:48:57;;;;;;;7.15;5.47;;;;;;;7.92;56.34;101709.62;1754948;80;21500;-71
2022/02/05 00:54:13;;;;;;;6.45;5.12;;;;;;;7.92;56.38;101716.10;1721005;82;21039;-72
2022/02/05 00:59:06;;;;;;;6.15;4.78;;;;;;;7.94;56.42;101709.20;1648188;85;21555;-72
2022/02/05 01:01:33;;;;;;;7.10;5.00;;;;;;;7.96;56.52;101703.59;1678754;84;21102;-71
2022/02/05 01:04:01;;;;;;;6.25;4.97;;;;;;;8.00;56.45;101702.74;1659684;84;21100;-71
2022/02/05 01:06:29;;;;;;;5.15;4.65;;;;;;;8.03;56.52;101706.66;1599255;87;21129;-72
2022/02/05 01:08:55;;;;;;;7.03;5.53;;;;;;;8.06;56.46;101705.36;1619468;87;21050;-72
2022/02/05 01:11:23;;;;;;;8.25;5.25;;;;;;;8.09;56.34;101704.09;1618882;87;21061;-72
2022/02/05 01:13:51;;;;;;;6.47;5.03;;;;;;;8.10;56.31;101705.80;1611449;88;21595;-72
2022/02/05 01:16:30;;;;;;;6.00;5.25;;;;;;;8.09;56.32;101696.31;1598579;88;21186;-72
2022/02/05 01:18:49;;;;;;;5.17;4.67;;;;;;;8.10;56.33;101698.45;1609451;88;21600;-72
2022/02/05 01:23:54;;;;;;;6.95;5.12;;;;;;;8.09;56.42;101683.34;1605611;88;21611;-72
2022/02/05 01:26:26;;;;;;;5.47;4.90;;;;;;;8.10;56.45;101688.95;1657470;85;20995;-72
2022/02/05 01:28:53;;;;;;;5.50;4.90;;;;;;;8.11;56.45;101689.41;1649434;85;21057;-72
2022/02/05 01:31:16;;;;;;;7.25;5.45;;;;;;;8.11;56.46;101690.70;1671273;84;21566;-71
2022/02/05 01:33:58;;;;;;;6.95;5.45;;;;;;;8.10;56.46;101692.84;1651136;86;21538;-72
2022/02/05 01:52:32;;;;;;;8.20;5.17;;;;;;;8.01;56.89;101690.66;1682537;84;21058;-72
2022/02/05 01:55:19;;;;;;;7.15;5.25;;;;;;;8.00;56.94;101685.90;1688547;83;21619;-72
2022/02/05 02:11:07;;;;;;;9.33;5.15;;;;;;;8.04;57.03;101677.27;1624267;87;20557;-71
2022/02/05 02:16:07;;;;;;;13.53;5.20;;;;;;;8.03;57.08;101682.45;1653422;85;21538;-72
2022/02/05 02:31:16;;;;;;;6.10;5.47;;;;;;;8.04;57.19;101668.20;1544917;91;21126;-71
2022/02/05 02:33:43;;;;;;;6.95;5.42;;;;;;;8.04;57.25;101672.09;1533258;92;21168;-73
2022/02/05 02:36:19;;;;;;;7.03;5.20;;;;;;;8.05;57.31;101669.95;1541583;92;21127;-71
2022/02/05 02:38:47;;;;;;;8.38;5.50;;;;;;;8.08;57.25;101677.71;1538226;92;21161;-72
2022/02/05 02:41:16;;;;;;;6.37;5.08;;;;;;;8.07;57.18;101679.89;1532619;92;21113;-71
2022/02/05 02:43:37;;;;;;;6.97;5.30;;;;;;;8.04;57.28;101683.75;1530036;93;21545;-71
2022/02/05 02:46:04;;;;;;;5.70;4.85;;;;;;;8.04;57.32;101673.38;1538978;92;21118;-72
2022/02/05 02:48:31;;;;;;;7.67;4.75;;;;;;;8.02;57.39;101678.99;1531765;92;21157;-71
2022/02/05 02:59:26;;;;;;;7.30;5.22;;;;;;;8.02;57.57;101666.03;1575512;90;21606;-72
2022/02/05 03:01:58;;;;;;;6.75;4.97;;;;;;;8.03;57.66;101671.67;1573495;89;21111;-72
2022/02/05 03:04:19;;;;;;;7.50;4.95;;;;;;;8.05;57.68;101674.25;1586546;88;21586;-71
2022/02/05 03:06:45;;;;;;;7.17;4.78;;;;;;;8.05;57.69;101673.83;1608915;89;21574;-72
2022/02/05 03:09:12;;;;;;;6.20;4.95;;;;;;;8.04;57.73;101673.38;1607205;89;21119;-71
2022/02/05 03:11:38;;;;;;;7.40;5.42;;;;;;;8.05;57.80;101671.23;1599776;89;21092;-73
2022/02/05 03:14:05;;;;;;;6.30;5.28;;;;;;;8.07;57.78;101668.22;1597578;89;21131;-72
2022/02/05 03:16:36;;;;;;;6.65;4.45;;;;;;;8.10;57.88;101669.52;1603139;88;21101;-71
2022/02/05 03:19:10;;;;;;;5.95;4.85;;;;;;;8.15;57.86;101672.12;1601936;88;21162;-71
2022/02/05 03:21:37;;;;;;;6.85;5.25;;;;;;;8.18;57.92;101663.91;1614009;88;21102;-72
2022/02/05 03:24:05;;;;;;;6.40;4.78;;;;;;;8.24;57.83;101665.22;1608738;89;21050;-73
2022/02/05 03:26:34;;;;;;;7.40;4.97;;;;;;;8.28;57.81;101660.09;1666547;85;21128;-71
2022/02/05 03:29:04;;;;;;;6.00;4.55;;;;;;;8.31;57.75;101655.77;1743539;80;21172;-72
2022/02/05 03:31:31;;;;;;;6.28;4.70;;;;;;;8.34;57.77;101647.13;1746606;80;21104;-71
2022/02/05 03:33:57;;;;;;;6.90;4.70;;;;;;;8.39;57.67;101651.91;1746142;81;21133;-71
2022/02/05 03:36:23;;;;;;;5.20;4.47;;;;;;;8.42;57.62;101645.41;1761307;80;21018;-72
2022/02/05 03:38:51;;;;;;;7.35;5.55;;;;;;;8.45;57.56;101644.13;1774114;80;21463;-73
2022/02/05 03:41:17;;;;;;;6.95;5.20;;;;;;;8.46;57.45;101638.06;1749432;80;21585;-72
2022/02/05 03:43:44;;;;;;;6.33;4.95;;;;;;;8.47;57.44;101639.81;1749584;80;21551;-72
2022/02/05 03:46:10;;;;;;;6.03;4.85;;;;;;;8.46;57.53;101638.06;1718039;81;21518;-71
2022/02/05 03:48:37;;;;;;;6.33;4.75;;;;;;;8.47;57.59;101635.92;1772996;80;21042;-72
2022/02/05 03:51:03;;;;;;;6.62;4.50;;;;;;;8.47;57.64;101639.36;1762939;80;21041;-72
2022/02/05 03:53:31;;;;;;;5.85;4.83;;;;;;;8.49;57.64;101632.90;1743821;80;21600;-73
2022/02/05 03:55:59;;;;;;;6.03;4.67;;;;;;;8.52;57.59;101636.77;1766929;80;21019;-72
2022/02/05 03:58:25;;;;;;;5.87;4.62;;;;;;;8.52;57.42;101636.77;1755383;80;21512;-73
2022/02/05 04:00:54;;;;;;;6.37;5.40;;;;;;;8.53;57.42;101637.22;1766297;80;21578;-72
2022/02/05 04:03:20;;;;;;;8.05;5.15;;;;;;;8.53;57.41;101628.14;1759722;80;21021;-72
2022/02/05 04:05:46;;;;;;;6.40;5.17;;;;;;;8.52;57.45;101636.77;1753105;80;20986;-72
2022/02/05 04:08:14;;;;;;;8.25;5.25;;;;;;;8.52;57.46;101634.18;1750486;80;21064;-72
2022/02/05 04:16:22;;;;;;;7.72;5.53;;;;;;;8.52;57.59;101626.39;1697767;83;21104;-73
2022/02/05 04:18:38;;;;;;;8.13;5.90;;;;;;;8.51;57.59;101625.52;1696915;83;21577;-73
2022/02/05 04:21:04;;;;;;;6.15;5.12;;;;;;;8.49;57.52;101634.20;1682750;83;21561;-73
2022/02/05 04:23:31;;;;;;;9.68;7.45;;;;;;;8.49;57.48;101631.59;1679239;83;21526;-73
2022/02/05 04:25:58;;;;;;;7.37;6.17;;;;;;;8.50;57.52;101638.50;1678770;84;21680;-73
2022/02/05 04:28:24;;;;;;;8.63;6.22;;;;;;;8.51;57.52;101637.20;1698776;83;20979;-72
2022/02/05 04:30:51;;;;;;;6.47;5.45;;;;;;;8.52;57.51;101636.77;1652699;85;21062;-72
2022/02/05 04:33:17;;;;;;;8.55;6.70;;;;;;;8.53;57.55;101642.41;1626651;86;21034;-72
2022/02/05 04:35:45;;;;;;;7.03;6.30;;;;;;;8.54;57.55;101644.13;1613936;87;21026;-73
2022/02/05 04:38:12;;;;;;;8.70;5.87;;;;;;;8.52;57.46;101648.02;1615516;86;21082;-72
2022/02/05 05:09:26;;;;;;;8.73;6.85;;;;;;;8.41;57.19;101656.67;1582046;89;21661;-72
2022/02/05 05:20:02;;;;;;;8.13;6.60;;;;;;;8.31;57.21;101660.08;1544141;90;21093;-72
2022/02/05 05:22:29;;;;;;;7.62;5.95;;;;;;;8.26;57.27;101656.63;1552973;90;21614;-73
2022/02/05 05:24:58;;;;;;;8.03;6.47;;;;;;;8.23;57.33;101667.39;1555667;90;21568;-73
2022/02/05 05:27:26;;;;;;;8.80;6.62;;;;;;;8.23;57.46;101668.69;1579793;89;21161;-72
2022/02/05 05:29:53;;;;;;;8.93;6.85;;;;;;;8.24;57.53;101665.22;1544200;91;21089;-74
2022/02/05 05:32:19;;;;;;;10.28;8.10;;;;;;;8.26;57.57;101663.11;1559689;90;21087;-72
2022/02/05 05:34:46;;;;;;;9.90;7.85;;;;;;;8.27;57.64;101663.11;1574823;88;21120;-72
2022/02/05 05:37:12;;;;;;;10.03;7.85;;;;;;;8.30;57.58;101664.42;1572548;89;21076;-73
2022/02/05 05:39:42;;;;;;;8.68;7.12;;;;;;;8.33;57.65;101663.53;1574032;90;21123;-73
2022/02/05 05:42:12;;;;;;;9.10;8.05;;;;;;;8.35;57.50;101664.41;1572858;89;21111;-73
2022/02/05 05:50:00;;;;;;;13.60;9.65;;;;;;;8.40;57.46;101664.00;1692873;83;21070;-72
2022/02/05 05:52:13;;;;;;;11.22;9.83;;;;;;;8.41;57.37;101664.45;1741896;81;21006;-73
2022/02/05 05:54:39;;;;;;;12.80;9.50;;;;;;;8.42;57.31;101663.56;1759602;80;21469;-73
2022/02/05 05:57:06;;;;;;;11.48;9.25;;;;;;;8.44;57.21;101662.72;1770894;80;21502;-72
2022/02/05 05:59:32;;;;;;;11.78;9.13;;;;;;;8.47;57.14;101661.86;1759818;80;21045;-72
2022/02/05 06:01:59;;;;;;;13.60;9.10;;;;;;;8.50;57.10;101667.03;1753477;80;21027;-71
2022/02/05 06:04:25;;;;;;;11.03;8.93;;;;;;;8.52;56.99;101665.30;1759955;80;21089;-72
2022/02/05 06:06:53;;;;;;;11.53;8.98;;;;;;;8.55;56.94;101662.73;1768013;80;21025;-72
2022/02/05 06:09:19;;;;;;;9.03;8.13;;;;;;;8.58;56.84;101667.91;1765405;80;21065;-71
2022/02/05 06:11:45;;;;;;;9.68;8.65;;;;;;;8.60;56.74;101670.06;1759851;80;21018;-72
2022/02/05 06:14:17;;;;;;;9.45;7.83;;;;;;;8.65;56.63;101669.66;1767221;80;21057;-71
2022/02/05 06:16:40;;;;;;;11.12;8.68;;;;;;;8.68;56.51;101668.34;1743056;80;21030;-71
2022/02/05 06:19:06;;;;;;;12.78;8.60;;;;;;;8.70;56.15;101668.78;1760251;80;20951;-71
2022/02/05 06:21:35;;;;;;;10.40;8.40;;;;;;;8.71;55.88;101667.05;1751363;81;21033;-72
2022/02/05 06:24:01;;;;;;;7.97;7.15;;;;;;;8.71;55.78;101661.87;1749961;80;21034;-71
2022/02/05 06:26:28;;;;;;;11.78;8.73;;;;;;;8.71;55.68;101661.87;1745764;80;21038;-71
2022/02/05 06:28:54;;;;;;;10.72;8.73;;;;;;;8.70;55.63;101664.89;1753441;80;20998;-72
2022/02/05 06:31:21;;;;;;;12.15;8.78;;;;;;;8.70;55.68;101662.72;1764294;80;21058;-72
2022/02/05 06:33:48;;;;;;;10.00;8.15;;;;;;;8.70;55.78;101663.59;1741721;80;20991;-72
2022/02/05 06:36:15;;;;;;;9.78;8.65;;;;;;;8.72;55.89;101666.17;1746554;80;21057;-71
2022/02/05 06:38:41;;;;;;;9.70;8.25;;;;;;;8.74;55.94;101672.23;1757657;80;21033;-71
2022/02/05 06:41:08;;;;;;;10.48;8.75;;;;;;;8.74;56.00;101674.83;1767993;80;21039;-71
2022/02/05 06:43:34;;;;;;;10.98;8.98;;;;;;;8.76;56.03;101674.39;1758016;80;21011;-71
2022/02/05 06:46:01;;;;;;;12.47;9.20;;;;;;;8.75;56.06;101670.08;1757570;80;20998;-71
2022/02/05 06:48:27;;;;;;;11.03;8.95;;;;;;;8.76;56.15;101667.91;1747889;80;21070;-70
2022/02/05 06:50:53;;;;;;;10.28;7.95;;;;;;;8.75;56.24;101665.77;1765576;80;21049;-70
2022/02/05 06:53:20;;;;;;;11.00;8.75;;;;;;;8.76;56.37;101661.41;1768141;80;21023;-71
2022/02/05 06:55:46;;;;;;;12.40;9.23;;;;;;;8.76;56.48;101660.13;1752116;80;20975;-71
2022/02/05 06:58:13;;;;;;;16.60;10.75;;;;;;;8.77;56.49;101660.57;1747805;80;21011;-71
2022/02/05 07:00:39;;;;;;;10.70;8.40;;;;;;;8.76;56.53;101657.52;1758117;80;21061;-71
2022/02/05 07:03:06;;;;;;;10.55;8.70;;;;;;;8.74;56.59;101652.34;1760147;80;21038;-72
2022/02/05 07:05:35;;;;;;;9.63;8.30;;;;;;;8.75;56.61;101649.33;1743147;81;21034;-71
2022/02/05 07:08:03;;;;;;;11.03;8.53;;;;;;;8.75;56.66;101645.44;1754282;80;21073;-71
2022/02/05 07:10:30;;;;;;;12.82;9.03;;;;;;;8.73;56.76;101641.55;1767436;80;21502;-70
2022/02/05 07:15:40;;;;;;;10.08;8.93;;;;;;;8.74;56.92;101639.38;1735590;80;21041;-70
2022/02/05 07:18:15;;;;;;;17.05;10.00;;;;;;;8.74;57.06;101630.71;1756562;80;21042;-72
2022/02/05 07:20:41;;;;;;;12.13;8.85;;;;;;;8.75;57.10;101630.73;1755373;80;21066;-71
2022/02/05 07:31:17;;;;;;;10.72;8.78;;;;;;;8.72;57.25;101636.34;1741226;81;21037;-71
2022/02/05 07:33:43;;;;;;;9.58;7.97;;;;;;;8.73;57.25;101634.19;1763586;80;21510;-71
2022/02/05 07:36:11;;;;;;;8.63;7.42;;;;;;;8.74;57.32;101627.69;1753792;80;21046;-72
2022/02/05 07:38:39;;;;;;;12.63;8.70;;;;;;;8.76;57.27;101622.50;1754197;80;21079;-72
2022/02/05 07:41:05;;;;;;;12.35;8.88;;;;;;;8.77;57.30;101613.86;1763434;80;20982;-70
2022/02/05 07:43:35;;;;;;;10.85;7.95;;;;;;;8.78;57.35;101615.58;1759288;80;20999;-71
2022/02/05 07:46:06;;;;;;;11.38;8.08;;;;;;;8.80;57.42;101617.73;1762660;80;21014;-71
2022/02/05 07:48:33;;;;;;;9.98;8.73;;;;;;;8.80;57.44;101612.55;1744963;81;21456;-71
2022/02/05 07:51:00;;;;;;;11.15;8.90;;;;;;;8.82;57.42;101616.03;1757794;80;20986;-71
2022/02/05 07:53:27;;;;;;;11.80;7.92;;;;;;;8.83;57.44;101607.36;1752296;80;21003;-72
2022/02/05 07:55:54;;;;;;;9.58;8.13;;;;;;;8.84;57.55;101597.43;1777718;80;21010;-71
2022/02/05 07:58:20;;;;;;;8.38;6.70;;;;;;;8.86;57.62;101606.08;1766267;80;21003;-70
2022/02/05 08:00:47;;;;;;;10.65;8.00;;;;;;;8.90;57.45;101603.91;1762895;80;20990;-71
2022/02/05 08:03:15;;;;;;;10.43;7.85;;;;;;;8.94;57.29;101608.23;1746215;80;20960;-72
2022/02/05 08:05:42;;;;;;;9.93;7.78;;;;;;;8.97;57.14;101603.02;1745844;80;20979;-72
2022/02/05 08:08:12;;;;;;;11.08;7.22;;;;;;;9.01;57.01;101599.12;1756172;80;21109;-71
2022/02/05 08:10:45;;;;;;;9.23;7.62;;;;;;;9.03;56.87;101600.41;1752759;80;21061;-71
2022/02/05 08:13:05;;;;;;;9.43;7.75;;;;;;;9.04;56.88;101599.55;1759917;80;21011;-71
2022/02/05 08:15:33;;;;;;;9.73;7.60;;;;;;;9.06;56.89;101610.80;1750653;80;21057;-71
2022/02/05 08:18:00;;;;;;;9.15;7.47;;;;;;;9.07;56.88;101607.31;1762026;80;21070;-71
2022/02/05 08:20:27;;;;;;;9.18;7.12;;;;;;;9.09;56.93;101605.58;1762730;80;21019;-70
2022/02/05 08:22:53;;;;;;;11.48;7.00;;;;;;;9.12;56.60;101604.72;1759519;80;21264;-72
2022/02/05 08:25:20;;;;;;;8.68;6.70;;;;;;;9.13;56.16;101611.20;1765224;80;21010;-70
2022/02/05 08:27:46;;;;;;;10.70;7.42;;;;;;;9.15;55.86;101609.92;1759851;80;21037;-70
2022/02/05 08:30:14;;;;;;;9.55;7.00;;;;;;;9.17;55.89;101606.42;1769139;80;20962;-72
2022/02/05 08:32:42;;;;;;;7.95;7.10;;;;;;;9.20;55.74;101609.03;1769244;80;21562;-71
2022/02/05 08:35:09;;;;;;;8.80;6.83;;;;;;;9.22;55.74;101602.09;1746573;81;20991;-72
2022/02/05 08:37:44;;;;;;;7.53;6.33;;;;;;;9.25;55.58;101596.91;1758235;80;21514;-71
2022/02/05 08:40:10;;;;;;;9.93;7.60;;;;;;;9.28;55.44;101596.88;1747362;80;21022;-71
2022/02/05 08:42:36;;;;;;;7.90;6.50;;;;;;;9.30;55.29;101602.94;1752235;80;21049;-69
2022/02/05 08:45:04;;;;;;;8.93;6.70;;;;;;;9.31;55.14;101606.41;1750194;80;21033;-71
2022/02/05 08:47:33;;;;;;;7.25;6.12;;;;;;;9.33;55.09;101612.03;1751436;80;20986;-70
2022/02/05 08:50:01;;;;;;;10.38;6.78;;;;;;;9.35;55.08;101618.09;1765430;81;21601;-70
2022/02/05 08:52:28;;;;;;;10.10;6.87;;;;;;;9.37;55.14;101626.73;1763380;80;21035;-71
2022/02/05 08:54:54;;;;;;;9.13;6.45;;;;;;;9.39;55.11;101622.41;1752020;80;21050;-71
2022/02/05 08:57:21;;;;;;;7.87;6.35;;;;;;;9.41;54.98;101611.57;1763208;80;21049;-70
2022/02/05 09:02:21;;;;;;;7.20;5.92;;;;;;;9.43;54.77;101625.42;1745445;81;21009;-71
2022/02/05 09:04:56;;;;;;;9.13;6.58;;;;;;;9.45;54.78;101615.88;1757353;80;21435;-72
2022/02/05 09:07:17;;;;;;;7.30;6.15;;;;;;;9.48;54.70;101618.91;1745899;81;21132;-72
2022/02/05 09:14:49;;;;;;;8.48;6.33;;;;;;;9.53;54.34;101593.34;1662562;84;21153;-72
2022/02/05 09:17:15;;;;;;;8.25;6.03;;;;;;;9.55;54.33;101591.59;1648999;85;21086;-71
2022/02/05 09:19:42;;;;;;;9.25;6.83;;;;;;;9.56;54.53;101594.60;1609334;86;21109;-73
2022/02/05 09:22:10;;;;;;;9.00;6.00;;;;;;;9.57;54.60;101587.68;1684158;85;21041;-72
2022/02/05 09:24:37;;;;;;;8.08;6.15;;;;;;;9.57;54.74;101587.25;1685722;83;21037;-69
2022/02/05 09:27:07;;;;;;;7.58;6.37;;;;;;;9.59;54.69;101584.21;1682324;84;21069;-71
2022/02/05 09:29:39;;;;;;;7.65;6.33;;;;;;;9.62;54.68;101576.84;1682814;84;21497;-72
2022/02/05 09:32:01;;;;;;;8.23;5.65;;;;;;;9.65;54.71;101584.61;1698882;83;21054;-71
2022/02/05 09:34:28;;;;;;;8.43;6.33;;;;;;;9.67;54.74;101579.84;1691128;84;21545;-72
2022/02/05 09:36:54;;;;;;;8.43;6.15;;;;;;;9.69;54.59;101584.59;1688145;83;21598;-71
2022/02/05 09:39:21;;;;;;;11.30;6.83;;;;;;;9.70;54.08;101586.34;1651574;86;21106;-71
2022/02/05 09:41:47;;;;;;;7.90;6.37;;;;;;;9.70;54.19;101583.73;1676167;84;21022;-72
2022/02/05 09:44:14;;;;;;;6.25;5.65;;;;;;;9.71;54.13;101578.95;1682319;83;21109;-72
2022/02/05 09:46:40;;;;;;;8.28;6.03;;;;;;;9.75;53.73;101583.27;1681512;83;21046;-69
2022/02/05 09:49:07;;;;;;;8.25;6.20;;;;;;;9.74;53.36;101568.55;1683111;84;21648;-71
2022/02/05 09:51:39;;;;;;;11.22;6.62;;;;;;;9.71;53.17;101567.25;1685261;85;21522;-70
2022/02/05 09:54:05;;;;;;;7.40;6.45;;;;;;;9.71;53.21;101575.05;1691450;84;21195;-72
2022/02/05 09:56:34;;;;;;;11.88;7.28;;;;;;;9.71;53.04;101577.66;1690246;84;20993;-71
2022/02/05 09:59:01;;;;;;;9.93;7.08;;;;;;;9.73;52.88;101575.91;1654120;85;21515;-72
2022/02/05 10:03:57;;;;;;;8.68;6.80;;;;;;;9.70;52.43;101568.14;1604146;88;21644;-73
2022/02/05 10:06:29;;;;;;;7.92;7.12;;;;;;;9.66;52.27;101566.44;1603311;88;21097;-71
2022/02/05 10:09:01;;;;;;;8.18;6.78;;;;;;;9.64;52.22;101562.95;1573412;90;21195;-71
2022/02/05 10:11:31;;;;;;;8.05;6.83;;;;;;;9.63;52.32;101563.84;1570764;90;21129;-71
2022/02/05 10:14:16;;;;;;;8.88;6.60;;;;;;;9.61;52.35;101561.69;1569654;90;21211;-72
2022/02/05 10:16:44;;;;;;;7.40;6.42;;;;;;;9.59;52.29;101564.72;1566727;89;21571;-72
2022/02/05 10:19:10;;;;;;;7.92;6.45;;;;;;;9.59;52.25;101559.95;1562949;90;21106;-70
2022/02/05 10:21:37;;;;;;;11.05;7.40;;;;;;;9.58;52.17;101561.68;1564084;90;21074;-71
2022/02/05 10:24:12;;;;;;;13.68;7.60;;;;;;;9.58;52.17;101555.19;1571938;90;21069;-71
2022/02/05 10:26:43;;;;;;;10.05;6.97;;;;;;;9.59;52.23;101549.13;1565082;90;21118;-72
2022/02/05 10:29:16;;;;;;;8.78;6.95;;;;;;;9.59;52.27;101541.34;1562790;90;21108;-72
2022/02/05 10:32:08;;;;;;;13.60;7.28;;;;;;;9.60;52.76;101543.05;1587099;89;21126;-71
2022/02/05 10:35:17;;;;;;;8.53;6.87;;;;;;;9.61;52.97;101543.49;1585082;89;21086;-71
2022/02/05 10:37:42;;;;;;;7.53;6.75;;;;;;;9.62;53.19;101537.41;1608063;88;21128;-72
2022/02/05 10:40:13;;;;;;;7.85;6.75;;;;;;;9.63;53.33;101530.06;1557405;90;21069;-72
2022/02/05 10:43:03;;;;;;;9.25;7.15;;;;;;;9.65;53.31;101530.04;1555039;91;21178;-72
2022/02/05 10:45:41;;;;;;;7.55;6.75;;;;;;;9.66;53.20;101523.98;1568073;90;21177;-72
2022/02/05 10:48:10;;;;;;;10.55;6.78;;;;;;;9.68;53.17;101525.71;1544169;91;21168;-72
2022/02/05 10:50:36;;;;;;;8.00;6.20;;;;;;;9.72;53.28;101523.52;1543987;91;21092;-72
2022/02/05 10:53:20;;;;;;;9.30;6.53;;;;;;;9.74;53.47;101512.67;1552936;90;21069;-73
2022/02/05 11:07:16;;;;;;;12.00;8.18;;;;;;;9.83;53.15;101503.50;1537333;89;21086;-72
2022/02/05 11:09:48;;;;;;;9.60;7.85;;;;;;;9.85;52.92;101500.45;1588690;88;21168;-73
2022/02/05 11:15:04;;;;;;;9.15;7.70;;;;;;;9.89;52.91;101503.05;1527438;93;21165;-72
2022/02/05 11:20:14;;;;;;;12.80;7.95;;;;;;;9.94;52.71;101496.06;1504928;93;21103;-72
2022/02/05 11:23:02;;;;;;;12.10;8.43;;;;;;;9.95;52.78;101499.97;1502968;94;21205;-71
2022/02/05 11:25:32;;;;;;;8.95;7.70;;;;;;;9.97;52.73;101497.35;1500651;94;22000;-72
2022/02/05 11:27:59;;;;;;;9.98;8.98;;;;;;;10.00;52.72;101499.91;1528614;92;21629;-73
2022/02/05 11:30:34;;;;;;;10.68;8.45;;;;;;;10.02;52.70;101496.43;1512674;94;21106;-71
2022/02/05 11:33:06;;;;;;;10.10;8.30;;;;;;;10.03;52.61;101496.00;1499776;94;21089;-72
2022/02/05 11:38:04;;;;;;;10.38;7.75;;;;;;;10.04;52.59;101490.78;1502201;94;21146;-72
2022/02/05 11:40:52;;;;;;;9.70;8.63;;;;;;;10.03;52.72;101487.77;1504618;93;21195;-72
2022/02/05 11:43:27;;;;;;;11.33;8.15;;;;;;;10.04;52.77;101485.58;1513623;93;21102;-72
2022/02/05 11:46:06;;;;;;;10.68;8.13;;;;;;;10.04;52.69;101476.48;1498536;94;21107;-72
2022/02/05 11:48:56;;;;;;;9.95;7.80;;;;;;;10.06;52.74;101472.56;1477523;95;21100;-71
2022/02/05 11:51:29;;;;;;;10.95;8.10;;;;;;;10.06;52.83;101471.26;1477573;95;21144;-72
2022/02/05 11:54:07;;;;;;;9.45;8.15;;;;;;;10.06;52.90;101468.23;1501303;94;21130;-72
2022/02/05 11:56:56;;;;;;;10.72;8.45;;;;;;;10.09;53.17;101464.75;1508962;93;21110;-71
2022/02/05 11:59:33;;;;;;;9.80;8.68;;;;;;;10.11;53.43;101470.41;1507460;94;21574;-71
2022/02/05 12:04:43;;;;;;;12.20;8.83;;;;;;;10.15;53.81;101467.33;1492270;95;21116;-72
2022/02/05 12:07:11;;;;;;;15.65;9.00;;;;;;;10.15;53.95;101460.40;1496682;94;22370;-72
2022/02/05 12:09:46;;;;;;;13.95;9.33;;;;;;;10.17;54.12;101457.77;1505727;94;21624;-71
2022/02/05 12:12:36;;;;;;;12.03;9.28;;;;;;;10.20;54.07;101460.36;1500751;94;21145;-73
2022/02/05 12:15:16;;;;;;;14.47;10.75;;;;;;;10.19;54.14;101460.80;1520292;89;21065;-72
2022/02/05 12:18:12;;;;;;;15.08;10.63;;;;;;;10.18;54.17;101454.31;1622426;87;21136;-72
2022/02/05 12:23:53;;;;;;;13.65;9.85;;;;;;;10.15;54.67;101452.59;1589937;89;21113;-72
2022/02/05 12:26:10;;;;;;;11.75;10.53;;;;;;;10.17;54.73;101452.57;1591258;89;21112;-73
2022/02/05 12:28:39;;;;;;;13.88;10.18;;;;;;;10.18;54.83;101453.02;1587533;89;21101;-71
2022/02/05 12:31:25;;;;;;;14.78;10.82;;;;;;;10.17;54.85;101447.37;1593845;89;21569;-72
2022/02/05 12:34:04;;;;;;;14.53;9.93;;;;;;;10.18;54.89;101449.95;1591453;88;21046;-72
2022/02/05 12:36:40;;;;;;;11.45;9.73;;;;;;;10.19;54.90;101449.52;1620795;87;21077;-73
2022/02/05 12:39:12;;;;;;;14.05;9.13;;;;;;;10.22;54.82;101450.80;1616373;87;21328;-73
2022/02/05 12:41:58;;;;;;;14.60;9.93;;;;;;;10.22;54.81;101453.41;1614605;88;21084;-72
2022/02/05 12:44:28;;;;;;;15.65;9.58;;;;;;;10.24;54.74;101454.26;1604244;87;21121;-72
2022/02/05 12:47:06;;;;;;;11.70;9.63;;;;;;;10.25;54.77;101450.77;1592824;89;21088;-73
2022/02/05 12:49:35;;;;;;;11.90;10.03;;;;;;;10.26;54.73;101447.30;1597961;87;21106;-72
2022/02/05 12:51:59;;;;;;;18.20;10.82;;;;;;;10.26;54.68;101443.40;1585607;89;21119;-73
2022/02/05 12:54:27;;;;;;;14.90;10.50;;;;;;;10.25;54.59;101439.92;1591275;89;21066;-72
2022/02/05 12:56:56;;;;;;;12.00;9.53;;;;;;;10.24;54.75;101447.75;1595438;88;21551;-72
2022/02/05 12:59:32;;;;;;;14.00;11.10;;;;;;;10.23;54.76;101449.48;1605344;87;21084;-74
2022/02/05 13:02:06;;;;;;;14.30;11.08;;;;;;;10.23;54.87;101452.52;1622905;86;21556;-73
2022/02/05 13:04:38;;;;;;;15.43;11.63;;;;;;;10.21;54.95;101460.77;1629306;86;21523;-71
2022/02/05 13:07:18;;;;;;;13.68;10.48;;;;;;;10.21;54.99;101462.94;1632593;86;21047;-72
2022/02/05 13:09:57;;;;;;;13.43;10.68;;;;;;;10.20;55.02;101457.77;1641208;87;21075;-73
2022/02/05 13:12:38;;;;;;;17.42;11.48;;;;;;;10.18;55.00;101457.75;1637916;86;21618;-72
2022/02/05 13:15:25;;;;;;;13.48;10.85;;;;;;;10.18;55.19;101455.61;1644989;85;21040;-72
2022/02/05 13:44:56;;;;;;;13.18;10.60;;;;;;;10.06;55.20;101430.95;1479207;96;21109;-71
2022/02/05 13:47:36;;;;;;;13.13;10.85;;;;;;;10.02;55.44;101425.36;1481463;95;21110;-71
2022/02/05 13:50:10;;;;;;;11.93;9.10;;;;;;;9.99;55.48;101424.98;1421137;100;21176;-72
2022/02/05 13:52:39;;;;;;;12.98;8.95;;;;;;;9.95;55.48;101423.71;1418244;99;21144;-72
2022/02/05 13:55:23;;;;;;;12.35;9.03;;;;;;;9.91;55.73;101422.02;1421988;100;21164;-72
2022/02/05 13:58:08;;;;;;;11.18;8.28;;;;;;;9.88;55.84;101419.42;1432978;98;21104;-72
2022/02/05 14:00:51;;;;;;;12.28;9.10;;;;;;;9.85;55.93;101417.70;1435182;99;21654;-72
2022/02/05 14:03:35;;;;;;;15.13;9.75;;;;;;;9.82;56.13;101419.05;1417011;100;21171;-71
2022/02/05 14:06:15;;;;;;;14.53;9.50;;;;;;;9.81;56.32;101416.87;1406238;101;21139;-72
2022/02/05 14:08:52;;;;;;;11.43;8.70;;;;;;;9.80;56.29;101412.57;1412261;99;21217;-71
2022/02/05 14:11:32;;;;;;;13.95;9.60;;;;;;;9.80;56.39;101408.67;1395027;102;21706;-72
2022/02/05 14:14:04;;;;;;;13.78;9.23;;;;;;;9.80;56.33;101402.17;1428065;97;21204;-71
2022/02/05 14:16:34;;;;;;;15.65;9.65;;;;;;;9.80;56.30;101402.60;1437948;98;21090;-73
2022/02/05 14:19:02;;;;;;;12.63;9.15;;;;;;;9.79;56.27;101404.33;1431845;98;21088;-72
2022/02/05 14:21:42;;;;;;;15.38;8.98;;;;;;;9.79;56.09;101404.33;1466471;98;21572;-72
2022/02/05 14:26:57;;;;;;;13.55;8.98;;;;;;;9.75;56.08;101403.06;1515315;92;21118;-71
2022/02/05 14:29:20;;;;;;;15.15;8.40;;;;;;;9.71;56.07;101402.23;1543693;92;21131;-73
2022/02/05 14:31:54;;;;;;;17.23;8.63;;;;;;;9.67;56.05;101402.27;1556494;91;21052;-71
2022/02/05 14:34:34;;;;;;;14.50;8.55;;;;;;;9.63;56.19;101400.56;1549465;90;21025;-71
2022/02/05 14:44:48;;;;;;;8.08;6.72;;;;;;;9.49;56.75;101386.39;1502884;94;21062;-70
2022/02/05 14:47:14;;;;;;;8.85;7.15;;;;;;;9.49;56.70;101386.39;1555023;89;21081;-72
2022/02/05 14:49:41;;;;;;;8.10;7.03;;;;;;;9.47;56.62;101399.83;1603792;87;21019;-72
2022/02/05 14:52:13;;;;;;;12.55;8.40;;;;;;;9.44;56.74;101419.74;1564353;89;21583;-71
2022/02/05 14:54:39;;;;;;;12.03;8.38;;;;;;;9.42;56.90;101418.47;1576239;90;21083;-70
2022/02/05 14:57:06;;;;;;;10.28;8.03;;;;;;;9.42;56.91;101419.77;1572790;89;21131;-71
2022/02/05 14:59:33;;;;;;;11.20;7.92;;;;;;;9.44;56.84;101420.61;1596623;87;21145;-71
2022/02/05 15:02:00;;;;;;;12.18;8.40;;;;;;;9.43;56.90;101421.50;1570062;89;21076;-71
2022/02/05 15:04:26;;;;;;;9.38;7.67;;;;;;;9.43;56.87;101433.19;1611981;88;21039;-71
2022/02/05 15:06:54;;;;;;;10.58;7.45;;;;;;;9.43;56.95;101431.89;1602317;88;21104;-71
2022/02/05 15:09:21;;;;;;;12.90;7.72;;;;;;;9.46;56.97;101425.83;1575477;89;21638;-71
2022/02/05 15:11:47;;;;;;;9.73;7.28;;;;;;;9.47;56.94;101418.44;1607538;88;21091;-71
2022/02/05 15:14:16;;;;;;;10.18;7.35;;;;;;;9.47;56.88;101416.71;1564045;89;21073;-71
2022/02/05 15:16:43;;;;;;;14.35;8.73;;;;;;;9.47;56.91;101419.31;1576252;89;21126;-73
2022/02/05 15:19:09;;;;;;;12.40;8.60;;;;;;;9.46;56.87;101426.66;1611312;88;21172;-71
2022/02/05 15:21:38;;;;;;;11.73;8.50;;;;;;;9.46;56.95;101429.72;1587197;89;21083;-71